Time;durP1;ratioP1;P1;durP2;ratioP2;P2;SDS_P1;SDS_P2;PMS_P1;PMS_P2;Temp;Humidity;BMP_temperature;BMP_pressure;BME280_temperature;BME280_humidity;BME280_pressure;Samples;Min_cycle;Max_cycle;Signal;HPM_P1;HPM_P2
2022/01/04 00:01:48;;;;;;;;;6.00;2.33;;;;;12.47;82.67;99987.13;5037242;28;45555;-53
2022/01/04 00:04:14;;;;;;;;;2.00;2.00;;;;;12.39;82.16;99971.19;5037850;28;45362;-53
2022/01/04 00:06:39;;;;;;;;;1.33;1.33;;;;;12.43;82.75;99964.47;5037302;28;45916;-53
2022/01/04 00:09:06;;;;;;;;;2.00;2.00;;;;;12.40;82.93;99962.19;5019463;28;45356;-53
2022/01/04 00:14:15;;;;;;;;;1.00;1.00;;;;;12.33;83.12;99964.72;5036607;28;45397;-54
2022/01/04 00:16:41;;;;;;;;;1.00;1.00;;;;;12.32;83.02;99944.38;5036669;28;46032;-54
2022/01/04 00:19:06;;;;;;;;;2.00;2.00;;;;;12.33;83.38;99945.22;5037161;28;45212;-53
2022/01/04 00:21:32;;;;;;;;;2.33;2.00;;;;;12.17;82.13;99914.97;5037140;28;45413;-54
2022/01/04 00:23:57;;;;;;;;;0.67;0.67;;;;;12.31;82.74;99931.25;5037393;28;45461;-54
2022/01/04 00:26:23;;;;;;;;;0.00;0.00;;;;;12.30;82.94;99932.22;5037036;28;46018;-53
2022/01/04 00:28:48;;;;;;;;;0.33;0.33;;;;;12.28;82.27;99918.25;5037042;28;45382;-54
2022/01/04 00:31:13;;;;;;;;;1.00;1.00;;;;;12.24;83.25;99910.59;5037273;28;45250;-53
2022/01/04 00:33:39;;;;;;;;;1.00;1.00;;;;;12.26;83.16;99904.25;5037158;28;45514;-53
2022/01/04 00:36:06;;;;;;;;;0.00;0.00;;;;;12.12;82.24;99873.88;5036787;28;46089;-53
2022/01/04 00:38:31;;;;;;;;;0.33;0.33;;;;;12.24;83.45;99889.28;5037085;28;45362;-53
2022/01/04 00:40:56;;;;;;;;;0.33;0.33;;;;;12.22;83.64;99874.47;5036827;28;45304;-53
2022/01/04 00:43:22;;;;;;;;;0.00;0.00;;;;;12.24;83.19;99869.78;5037177;28;45333;-53
2022/01/04 00:45:47;;;;;;;;;0.00;0.00;;;;;12.26;82.62;99869.59;5035434;28;47835;-53
2022/01/04 00:50:38;;;;;;;;;0.00;0.00;;;;;12.27;83.93;99855.28;5036974;28;45405;-54
2022/01/04 00:53:05;;;;;;;;;0.00;0.00;;;;;12.24;83.37;99851.94;5037249;28;45479;-54
2022/01/04 00:55:31;;;;;;;;;1.00;1.00;;;;;12.25;83.18;99844.78;5036810;28;47133;-54
2022/01/04 00:57:57;;;;;;;;;1.00;1.00;;;;;12.24;83.23;99835.94;5036723;28;45383;-54
2022/01/04 01:00:23;;;;;;;;;0.00;0.00;;;;;12.27;83.32;99831.28;5036642;28;45334;-49
2022/01/04 01:02:48;;;;;;;;;1.00;1.00;;;;;12.29;82.76;99829.25;5036797;28;45351;-54
2022/01/04 01:05:16;;;;;;;;;0.00;0.00;;;;;12.29;83.60;99822.06;5036037;28;45251;-54
2022/01/04 01:07:42;;;;;;;;;0.00;0.00;;;;;12.34;82.52;99810.84;5035308;28;45351;-52
2022/01/04 01:12:54;;;;;;;;;0.33;0.00;;;;;12.37;83.48;99799.84;5036798;28;45383;-54
2022/01/04 01:15:20;;;;;;;;;0.00;0.00;;;;;12.42;83.75;99797.44;5036505;28;45365;-53
2022/01/04 01:17:45;;;;;;;;;0.00;0.00;;;;;12.45;82.86;99791.75;5036090;28;45295;-51
2022/01/04 01:20:13;;;;;;;;;0.00;0.00;;;;;12.44;83.19;99782.09;5035731;28;45447;-51
2022/01/04 01:22:39;;;;;;;;;0.00;0.00;;;;;12.46;82.77;99780.06;5036630;28;45451;-53
2022/01/04 01:25:06;;;;;;;;;0.00;0.00;;;;;12.45;83.14;99778.41;5036250;28;45256;-53
2022/01/04 01:27:31;;;;;;;;;0.00;0.00;;;;;12.47;82.91;99777.25;5039272;28;46471;-54
2022/01/04 01:29:57;;;;;;;;;0.00;0.00;;;;;12.50;83.19;99786.69;5039911;28;45282;-50
2022/01/04 01:32:22;;;;;;;;;0.00;0.00;;;;;12.54;83.40;99779.16;5039363;28;45446;-51
2022/01/04 01:34:48;;;;;;;;;0.00;0.00;;;;;12.55;83.04;99764.81;5039862;28;45429;-54
2022/01/04 01:37:13;;;;;;;;;0.00;0.00;;;;;12.54;83.12;99763.97;5039660;28;45397;-52
2022/01/04 01:39:39;;;;;;;;;0.00;0.00;;;;;12.59;82.44;99755.44;5039779;28;45422;-54
2022/01/04 01:42:05;;;;;;;;;0.00;0.00;;;;;12.59;82.77;99747.41;5039972;28;45292;-51
2022/01/04 01:44:31;;;;;;;;;2.00;1.00;;;;;12.60;82.80;99741.91;5038101;28;45463;-54
2022/01/04 01:46:57;;;;;;;;;0.00;0.00;;;;;12.59;82.54;99737.56;5039713;28;45343;-53
2022/01/04 01:49:23;;;;;;;;;0.00;0.00;;;;;12.61;82.34;99732.91;5039391;28;45205;-54
2022/01/04 01:51:48;;;;;;;;;1.00;0.67;;;;;12.64;82.21;99724.53;5039648;28;45394;-53
2022/01/04 01:54:14;;;;;;;;;0.00;0.00;;;;;12.62;82.47;99715.88;5039382;28;45929;-55
2022/01/04 01:56:39;;;;;;;;;0.00;0.00;;;;;12.65;82.97;99710.16;5039284;28;45299;-55
2022/01/04 01:59:06;;;;;;;;;0.00;0.00;;;;;12.66;82.98;99703.81;5039375;28;45581;-54
2022/01/04 02:01:32;;;;;;;;;0.00;0.00;;;;;12.66;82.21;99706.47;5039572;28;45289;-54
2022/01/04 02:03:57;;;;;;;;;1.67;0.00;;;;;12.64;82.62;99702.34;5038992;28;45310;-54
2022/01/04 02:06:24;;;;;;;;;0.00;0.00;;;;;12.67;82.31;99702.78;5039326;28;45375;-53
2022/01/04 02:08:49;;;;;;;;;0.00;0.00;;;;;12.64;82.56;99691.66;5039252;28;45466;-53
2022/01/04 02:11:17;;;;;;;;;0.00;0.00;;;;;12.67;82.37;99696.63;5039171;28;45410;-53
2022/01/04 02:13:42;;;;;;;;;0.00;0.00;;;;;12.70;82.93;99691.75;5039157;28;46248;-54
2022/01/04 02:16:09;;;;;;;;;1.00;0.00;;;;;12.72;82.75;99692.41;5038890;28;45172;-51
2022/01/04 02:18:35;;;;;;;;;1.33;1.00;;;;;12.69;82.64;99675.94;5038940;28;45282;-53
2022/01/04 02:21:00;;;;;;;;;0.00;0.00;;;;;12.69;82.80;99668.75;5038980;28;45349;-53
2022/01/04 02:23:25;;;;;;;;;2.00;0.00;;;;;12.74;82.87;99671.69;5038868;28;45587;-54
2022/01/04 02:25:52;;;;;;;;;0.67;0.00;;;;;12.74;82.64;99665.53;5038874;28;45321;-52
2022/01/04 02:28:20;;;;;;;;;2.67;2.00;;;;;12.72;82.87;99657.72;5038887;28;45363;-52
2022/01/04 02:30:47;;;;;;;;;5.00;3.33;;;;;12.71;82.51;99661.38;5039206;28;45472;-53
2022/01/04 02:33:13;;;;;;;;;2.33;2.33;;;;;12.70;82.35;99657.06;5037220;28;45384;-53
2022/01/04 02:35:38;;;;;;;;;3.67;3.67;;;;;12.66;82.20;99647.78;5038547;28;45358;-52
2022/01/04 02:38:04;;;;;;;;;3.00;3.00;;;;;12.65;82.44;99631.97;5038141;28;45405;-53
2022/01/04 02:40:31;;;;;;;;;2.67;2.67;;;;;12.63;82.36;99628.66;5038701;28;45386;-52
2022/01/04 02:42:58;;;;;;;;;4.00;2.33;;;;;12.62;82.57;99629.66;5038234;28;45463;-54
2022/01/04 02:45:23;;;;;;;;;2.00;2.00;;;;;12.58;82.18;99623.88;5038575;28;45335;-54
2022/01/04 02:47:50;;;;;;;;;4.00;3.33;;;;;12.57;81.67;99616.91;5038645;28;45278;-54
2022/01/04 02:50:16;;;;;;;;;3.00;3.00;;;;;12.53;81.78;99612.13;5038880;28;45358;-53
2022/01/04 02:52:42;;;;;;;;;1.00;1.00;;;;;12.52;82.01;99607.81;5038261;28;45434;-53
2022/01/04 02:55:10;;;;;;;;;2.00;2.00;;;;;12.47;81.50;99606.53;5038530;28;45431;-54
2022/01/04 02:57:36;;;;;;;;;2.67;2.67;;;;;12.47;81.41;99597.66;5038794;28;45372;-54
2022/01/04 03:00:06;;;;;;;;;2.00;2.00;;;;;12.41;81.35;99593.09;5038529;28;45369;-55
2022/01/04 03:02:31;;;;;;;;;6.00;2.33;;;;;12.42;81.86;99586.75;5037724;28;45382;-54
2022/01/04 03:04:57;;;;;;;;;4.00;3.00;;;;;12.39;81.66;99585.28;5037991;28;45392;-54
2022/01/04 03:07:22;;;;;;;;;6.00;3.00;;;;;12.36;81.77;99582.16;5038416;28;45364;-53
2022/01/04 03:09:47;;;;;;;;;7.00;3.00;;;;;12.32;81.58;99578.22;5038710;28;45252;-52
2022/01/04 03:12:13;;;;;;;;;2.67;2.67;;;;;12.28;81.06;99571.59;5038100;28;46168;-52
2022/01/04 03:14:38;;;;;;;;;6.00;2.67;;;;;12.20;80.75;99565.34;5038186;28;45211;-52
2022/01/04 03:17:04;;;;;;;;;6.67;3.00;;;;;12.20;81.49;99564.53;5038337;28;45366;-55
2022/01/04 03:19:29;;;;;;;;;4.33;3.00;;;;;12.19;80.65;99569.03;5037981;28;45488;-52
2022/01/04 03:21:55;;;;;;;;;4.00;3.33;;;;;12.16;80.61;99572.06;5037929;28;45676;-53
2022/01/04 03:24:20;;;;;;;;;3.00;2.00;;;;;12.13;80.71;99555.63;5038101;28;45279;-53
2022/01/04 03:26:46;;;;;;;;;4.67;4.00;;;;;12.08;80.46;99550.00;5038134;28;45526;-55
2022/01/04 03:29:13;;;;;;;;;2.00;2.00;;;;;12.04;80.31;99549.56;5038143;28;45485;-54
2022/01/04 03:31:39;;;;;;;;;3.33;2.00;;;;;11.96;80.37;99539.81;5037728;28;46113;-55
2022/01/04 03:34:05;;;;;;;;;4.67;1.00;;;;;11.90;80.02;99539.75;5037666;28;45482;-54
2022/01/04 03:36:31;;;;;;;;;2.00;2.00;;;;;11.87;80.64;99538.25;5037841;28;45366;-53
2022/01/04 03:38:58;;;;;;;;;2.00;2.00;;;;;11.84;80.25;99533.31;5038114;28;45255;-54
2022/01/04 03:41:25;;;;;;;;;1.00;1.00;;;;;11.79;80.12;99526.84;5037517;28;46392;-50
2022/01/04 03:43:52;;;;;;;;;5.00;2.00;;;;;11.77;80.56;99521.72;5037770;28;45362;-52
2022/01/04 03:46:18;;;;;;;;;2.33;2.00;;;;;11.74;80.26;99520.22;5037958;28;45490;-52
2022/01/04 03:48:44;;;;;;;;;2.00;1.00;;;;;11.71;80.15;99517.09;5037742;28;45255;-52
2022/01/04 03:51:11;;;;;;;;;1.00;1.00;;;;;11.62;80.35;99515.53;5037890;28;46908;-53
2022/01/04 03:53:36;;;;;;;;;3.00;1.00;;;;;11.66;80.37;99525.66;5037718;28;45466;-52
2022/01/04 03:56:03;;;;;;;;;2.67;1.00;;;;;11.63;80.24;99517.19;5037560;28;45268;-53
2022/01/04 03:58:29;;;;;;;;;0.00;0.00;;;;;11.56;80.32;99510.97;5037979;28;45501;-52
2022/01/04 04:00:54;;;;;;;;;0.00;0.00;;;;;11.58;80.25;99516.91;5037276;28;45383;-53
2022/01/04 04:03:20;;;;;;;;;0.00;0.00;;;;;11.55;79.81;99520.78;5037530;28;45292;-53
2022/01/04 04:05:45;;;;;;;;;0.00;0.00;;;;;11.41;79.70;99497.63;5037694;28;45342;-54
2022/01/04 04:08:10;;;;;;;;;0.00;0.00;;;;;11.48;79.71;99514.53;5037690;28;45250;-54
2022/01/04 04:10:36;;;;;;;;;0.00;0.00;;;;;11.47;79.75;99519.03;5037501;28;45967;-54
2022/01/04 04:13:02;;;;;;;;;0.00;0.00;;;;;11.43;79.50;99523.06;5037231;28;45341;-52
2022/01/04 04:15:28;;;;;;;;;0.33;0.33;;;;;11.40;79.53;99526.09;5037526;28;45311;-53
2022/01/04 04:17:53;;;;;;;;;3.00;2.00;;;;;11.40;79.50;99522.59;5037413;28;45373;-52
2022/01/04 04:20:18;;;;;;;;;2.00;0.33;;;;;11.34;79.94;99507.38;5036608;28;46096;-54
2022/01/04 04:22:44;;;;;;;;;1.33;1.33;;;;;11.38;79.58;99524.63;5037057;28;45373;-53
2022/01/04 04:25:09;;;;;;;;;0.00;0.00;;;;;11.37;79.37;99528.28;5037339;28;45330;-54
2022/01/04 04:27:35;;;;;;;;;2.67;1.00;;;;;11.31;79.35;99524.53;5037400;28;45418;-54
2022/01/04 04:30:01;;;;;;;;;0.00;0.00;;;;;10.90;79.27;99469.00;5037114;28;46069;-51
2022/01/04 04:32:26;;;;;;;;;0.00;0.00;;;;;11.23;78.83;99536.06;5036971;28;45503;-55
2022/01/04 04:34:52;;;;;;;;;0.00;0.00;;;;;11.21;79.15;99534.63;5037078;28;45364;-53
2022/01/04 04:37:17;;;;;;;;;0.00;0.00;;;;;11.20;78.81;99539.09;5037263;28;45494;-55
2022/01/04 04:39:43;;;;;;;;;0.00;0.00;;;;;11.18;79.43;99534.97;5036871;28;45457;-55
2022/01/04 04:42:08;;;;;;;;;0.00;0.00;;;;;11.15;79.11;99530.81;5036843;28;45248;-55
2022/01/04 04:44:34;;;;;;;;;0.33;0.00;;;;;11.08;78.97;99535.22;5036862;28;45414;-55
2022/01/04 04:47:00;;;;;;;;;0.00;0.00;;;;;10.97;78.99;99527.66;5037288;28;45310;-54
2022/01/04 04:49:26;;;;;;;;;1.00;0.00;;;;;11.04;79.26;99544.56;5036620;28;45250;-54
2022/01/04 04:51:51;;;;;;;;;0.67;0.00;;;;;11.02;79.24;99541.25;5036891;28;45424;-54
2022/01/04 04:54:16;;;;;;;;;0.00;0.00;;;;;11.00;79.00;99543.28;5036957;28;45385;-52
2022/01/04 04:56:42;;;;;;;;;1.00;0.00;;;;;10.92;79.50;99546.81;5037001;28;45703;-51
2022/01/04 04:59:08;;;;;;;;;0.00;0.00;;;;;10.95;79.26;99554.44;5036769;28;46320;-52
2022/01/04 05:01:35;;;;;;;;;0.00;0.00;;;;;10.94;78.75;99555.44;5038504;28;45477;-53
2022/01/04 05:04:00;;;;;;;;;0.00;0.00;;;;;10.81;79.05;99533.94;5039752;28;45309;-53
2022/01/04 05:06:26;;;;;;;;;0.00;0.00;;;;;10.89;78.94;99564.97;5040391;28;45518;-52
2022/01/04 05:08:52;;;;;;;;;0.00;0.00;;;;;10.84;78.89;99560.19;5040023;28;46975;-55
2022/01/04 05:11:18;;;;;;;;;0.00;0.00;;;;;10.81;78.53;99565.03;5040343;28;45350;-51
2022/01/04 05:13:43;;;;;;;;;0.00;0.00;;;;;10.78;78.80;99557.38;5040159;28;45187;-55
2022/01/04 05:16:08;;;;;;;;;0.00;0.00;;;;;10.70;78.67;99550.28;5040610;28;45495;-53
2022/01/04 05:18:34;;;;;;;;;0.00;0.00;;;;;10.67;78.64;99559.47;5040037;28;46218;-54
2022/01/04 05:20:59;;;;;;;;;1.00;0.00;;;;;10.70;78.54;99567.09;5039585;28;45510;-55
2022/01/04 05:23:25;;;;;;;;;0.00;0.00;;;;;10.68;78.69;99574.41;5040338;28;45860;-54
2022/01/04 05:25:50;;;;;;;;;0.00;0.00;;;;;10.63;78.63;99570.63;5040119;28;45414;-52
2022/01/04 05:28:15;;;;;;;;;0.00;0.00;;;;;10.65;78.45;99580.06;5039934;28;45376;-52
2022/01/04 05:30:41;;;;;;;;;0.33;0.00;;;;;10.64;78.55;99575.75;5039907;28;45311;-54
2022/01/04 05:33:06;;;;;;;;;1.00;0.00;;;;;10.66;79.14;99579.09;5039880;28;46060;-53
2022/01/04 05:35:31;;;;;;;;;0.00;0.00;;;;;10.66;78.90;99586.22;5040040;28;45348;-54
2022/01/04 05:37:57;;;;;;;;;0.00;0.00;;;;;10.58;78.86;99570.34;5039621;28;46252;-52
2022/01/04 05:40:22;;;;;;;;;0.00;0.00;;;;;10.63;78.27;99575.97;5039482;28;45312;-54
2022/01/04 05:42:47;;;;;;;;;0.00;0.00;;;;;10.58;78.46;99567.69;5039766;28;45526;-54
2022/01/04 05:45:13;;;;;;;;;0.00;0.00;;;;;10.59;78.79;99567.50;5039639;28;45530;-54
2022/01/04 05:47:38;;;;;;;;;0.00;0.00;;;;;10.57;78.87;99571.31;5039603;28;46077;-52
2022/01/04 05:50:05;;;;;;;;;1.00;1.00;;;;;10.60;78.99;99579.78;5039246;28;45368;-53
2022/01/04 05:52:32;;;;;;;;;2.00;0.00;;;;;10.60;78.92;99579.78;5039528;28;45413;-52
2022/01/04 05:54:57;;;;;;;;;3.00;0.00;;;;;10.58;78.84;99581.81;5039785;28;45255;-53
2022/01/04 05:57:23;;;;;;;;;0.00;0.00;;;;;10.61;78.39;99573.44;5039297;28;45603;-52
2022/01/04 05:59:48;;;;;;;;;0.00;0.00;;;;;10.60;78.76;99581.63;5039499;28;45348;-51
2022/01/04 06:02:13;;;;;;;;;0.00;0.00;;;;;10.58;78.55;99583.63;5039263;28;45542;-54
2022/01/04 06:04:39;;;;;;;;;0.00;0.00;;;;;10.59;78.71;99588.78;5039645;28;45371;-55
2022/01/04 06:07:04;;;;;;;;;0.00;0.00;;;;;10.58;78.80;99576.47;5039061;28;45373;-52
2022/01/04 06:09:40;;;;;;;;;0.67;0.67;;;;;10.58;78.65;99568.50;5039280;28;45407;-55
2022/01/04 06:14:50;;;;;;;;;0.00;0.00;;;;;10.60;78.12;99582.44;5038443;28;45291;-54
2022/01/04 06:14:52;;;;;;;;;0.00;0.00;;;;;10.58;78.38;99580.97;5039251;28;45323;-54
2022/01/04 06:17:19;;;;;;;;;1.00;0.00;;;;;10.58;78.63;99579.13;5038978;28;46932;-53
2022/01/04 06:19:45;;;;;;;;;0.00;0.00;;;;;10.56;78.00;99561.69;5038652;28;45390;-55
2022/01/04 06:22:11;;;;;;;;;0.33;0.33;;;;;10.60;78.43;99579.78;5038848;28;45288;-53
2022/01/04 06:24:37;;;;;;;;;0.00;0.00;;;;;10.60;78.44;99577.13;5039371;28;45481;-53
2022/01/04 06:27:09;;;;;;;;;1.00;1.00;;;;;10.60;78.19;99579.78;5037584;28;46230;-54
2022/01/04 06:29:37;;;;;;;;;1.00;1.00;;;;;10.60;78.32;99589.59;5038747;28;45307;-52
2022/01/04 06:32:04;;;;;;;;;1.00;0.00;;;;;10.60;78.29;99590.41;5038977;28;45393;-55
2022/01/04 06:34:29;;;;;;;;;1.67;1.67;;;;;10.61;78.21;99601.88;5038995;28;45228;-51
2022/01/04 06:36:55;;;;;;;;;0.00;0.00;;;;;10.63;78.27;99607.88;5038492;28;46272;-51
2022/01/04 06:39:20;;;;;;;;;0.00;0.00;;;;;10.64;77.83;99606.84;5038778;28;45373;-53
2022/01/04 06:41:45;;;;;;;;;2.00;1.00;;;;;10.53;77.70;99585.97;5038860;28;45719;-52
2022/01/04 06:44:11;;;;;;;;;2.00;1.00;;;;;10.60;77.97;99598.41;5039096;28;45227;-53
2022/01/04 06:46:38;;;;;;;;;2.00;0.67;;;;;10.62;77.94;99611.50;5038689;28;45251;-52
2022/01/04 06:49:04;;;;;;;;;4.00;2.00;;;;;10.60;77.67;99619.66;5038462;28;45499;-52
2022/01/04 06:51:29;;;;;;;;;0.00;0.00;;;;;10.60;77.89;99622.34;5038463;28;45330;-55
2022/01/04 06:53:55;;;;;;;;;1.00;1.00;;;;;10.59;77.52;99611.88;5038932;28;45489;-53
2022/01/04 06:56:20;;;;;;;;;0.67;0.67;;;;;10.57;77.63;99622.66;5038532;28;45994;-55
2022/01/04 06:58:46;;;;;;;;;0.00;0.00;;;;;10.60;77.51;99632.16;5038406;28;45362;-53
2022/01/04 07:01:11;;;;;;;;;0.00;0.00;;;;;10.57;77.82;99638.63;5038538;28;45423;-55
2022/01/04 07:03:37;;;;;;;;;0.33;0.33;;;;;10.58;77.43;99639.47;5038697;28;45185;-54
2022/01/04 07:06:02;;;;;;;;;2.00;1.33;;;;;10.60;76.96;99658.72;5038338;28;45317;-54
2022/01/04 07:08:28;;;;;;;;;2.00;1.00;;;;;10.61;77.10;99655.91;5036948;28;45277;-56
2022/01/04 07:10:53;;;;;;;;;0.00;0.00;;;;;10.63;77.00;99653.06;5038484;28;45287;-53
2022/01/04 07:13:19;;;;;;;;;1.00;1.00;;;;;10.58;76.92;99640.31;5038608;28;45470;-53
2022/01/04 07:15:46;;;;;;;;;3.00;1.00;;;;;10.65;76.61;99648.41;5038108;28;46198;-55
2022/01/04 07:18:11;;;;;;;;;1.00;1.00;;;;;10.65;76.24;99648.41;5038189;28;45436;-55
2022/01/04 07:20:36;;;;;;;;;2.00;1.00;;;;;10.66;76.31;99648.25;5031481;28;45573;-55
2022/01/04 07:23:02;;;;;;;;;1.00;1.00;;;;;10.65;76.64;99641.25;5038163;28;45401;-55
2022/01/04 07:25:28;;;;;;;;;1.00;1.00;;;;;10.67;75.80;99636.59;5037775;28;45369;-56
2022/01/04 07:27:53;;;;;;;;;0.33;0.00;;;;;10.66;75.83;99650.03;5038024;28;45273;-53
2022/01/04 07:30:19;;;;;;;;;0.00;0.00;;;;;10.66;75.98;99647.38;5038042;28;45388;-53
2022/01/04 07:32:44;;;;;;;;;1.33;1.00;;;;;10.65;76.50;99651.06;5038235;28;45412;-53
2022/01/04 07:35:10;;;;;;;;;1.00;1.00;;;;;10.62;76.67;99662.91;5037860;28;45935;-53
2022/01/04 07:37:35;;;;;;;;;1.00;1.00;;;;;10.60;76.88;99659.56;5037692;28;45346;-54
2022/01/04 07:40:01;;;;;;;;;4.00;1.00;;;;;10.63;77.03;99669.03;5037872;28;45353;-53
2022/01/04 07:42:26;;;;;;;;;2.67;1.00;;;;;10.64;76.45;99671.50;5038020;28;45367;-54
2022/01/04 07:44:51;;;;;;;;;0.00;0.00;;;;;10.67;76.23;99673.00;5037710;28;45369;-54
2022/01/04 07:47:17;;;;;;;;;6.67;1.00;;;;;10.69;75.85;99681.63;5037855;28;45365;-52
2022/01/04 07:49:42;;;;;;;;;1.00;1.00;;;;;10.69;75.68;99677.13;5037889;28;45236;-54
2022/01/04 07:52:08;;;;;;;;;1.00;1.00;;;;;10.66;75.70;99682.81;5037683;28;45429;-53
2022/01/04 07:54:33;;;;;;;;;5.00;2.00;;;;;10.67;76.02;99697.78;5037347;28;46292;-53
2022/01/04 07:56:58;;;;;;;;;3.00;1.00;;;;;10.68;75.30;99698.59;5037495;28;45452;-53
2022/01/04 07:59:29;;;;;;;;;2.67;2.00;;;;;10.65;75.42;99696.28;5037615;28;45316;-55
2022/01/04 08:01:54;;;;;;;;;1.33;1.33;;;;;10.66;75.37;99713.88;5037600;28;45288;-54
2022/01/04 08:04:20;;;;;;;;;3.00;3.00;;;;;10.62;75.64;99707.25;5037092;28;45929;-53
2022/01/04 08:06:45;;;;;;;;;7.00;3.00;;;;;10.62;75.75;99721.41;5037279;28;45345;-53
2022/01/04 08:09:10;;;;;;;;;6.33;4.33;;;;;10.62;75.65;99739.16;5037441;28;45436;-53
2022/01/04 08:11:36;;;;;;;;;2.00;2.00;;;;;10.64;75.34;99730.03;5037429;28;45361;-54
2022/01/04 08:14:01;;;;;;;;;6.00;2.33;;;;;10.66;75.59;99746.66;5037103;28;46038;-55
2022/01/04 08:16:26;;;;;;;;;5.00;5.00;;;;;10.66;75.40;99751.97;5037209;28;45531;-53
2022/01/04 08:18:52;;;;;;;;;5.33;3.67;;;;;10.69;75.16;99761.41;5037238;28;45363;-52
2022/01/04 08:21:17;;;;;;;;;2.00;2.00;;;;;10.70;75.20;99761.28;5037279;28;45454;-54
2022/01/04 08:23:43;;;;;;;;;2.00;2.00;;;;;10.69;74.94;99764.09;5036782;28;46159;-54
2022/01/04 08:26:08;;;;;;;;;2.00;2.00;;;;;10.67;75.23;99758.94;5037374;28;45373;-54
2022/01/04 08:28:33;;;;;;;;;3.00;2.00;;;;;10.72;75.22;99764.56;5035866;28;45700;-54
2022/01/04 08:30:59;;;;;;;;;2.00;2.00;;;;;10.71;74.93;99760.25;5037384;28;45340;-53
2022/01/04 08:33:24;;;;;;;;;2.00;2.00;;;;;10.71;74.51;99746.97;5036839;28;45446;-55
2022/01/04 08:35:49;;;;;;;;;2.67;1.00;;;;;10.73;74.28;99746.78;5035367;28;45451;-53
2022/01/04 08:38:15;;;;;;;;;1.33;1.00;;;;;10.74;73.96;99765.25;5036130;28;45336;-54
2022/01/04 08:40:40;;;;;;;;;2.00;2.00;;;;;10.77;74.16;99779.19;5036149;28;45212;-54
2022/01/04 08:43:06;;;;;;;;;1.33;1.33;;;;;10.83;74.06;99783.81;5036189;28;47542;-56
2022/01/04 08:45:33;;;;;;;;;1.67;0.00;;;;;10.84;74.08;99785.50;5036010;28;45520;-55
2022/01/04 08:47:59;;;;;;;;;1.00;1.00;;;;;10.84;73.83;99782.84;5036529;28;45339;-54
2022/01/04 08:50:25;;;;;;;;;0.67;0.67;;;;;10.82;74.24;99785.66;5036443;28;45326;-55
2022/01/04 08:52:52;;;;;;;;;5.00;1.00;;;;;10.73;74.05;99792.00;5036054;28;46382;-54
2022/01/04 08:55:18;;;;;;;;;0.33;0.33;;;;;10.75;73.98;99798.00;5036489;28;45519;-55
2022/01/04 08:57:44;;;;;;;;;1.00;1.00;;;;;10.66;73.84;99791.00;5036091;28;45413;-55
2022/01/04 09:00:10;;;;;;;;;1.00;1.00;;;;;10.65;74.23;99792.84;5036290;28;45351;-54
2022/01/04 09:02:36;;;;;;;;;1.00;1.00;;;;;10.62;74.31;99793.22;5036190;28;45327;-53
2022/01/04 09:05:02;;;;;;;;;2.67;2.67;;;;;10.59;74.21;99787.41;5035623;28;45424;-52
2022/01/04 09:07:28;;;;;;;;;2.00;0.33;;;;;10.56;74.56;99790.38;5035869;28;45389;-53
2022/01/04 09:09:53;;;;;;;;;1.00;1.00;;;;;10.56;74.42;99804.50;5036383;28;45386;-55
2022/01/04 09:12:22;;;;;;;;;1.00;1.00;;;;;10.47;74.44;99802.88;5035920;28;46159;-54
2022/01/04 09:20:06;;;;;;;;;5.00;1.33;;;;;10.60;74.63;99820.97;5035579;28;45425;-55
2022/01/04 09:22:32;;;;;;;;;1.00;1.00;;;;;10.61;74.74;99815.47;5035135;28;46196;-54
2022/01/04 09:24:57;;;;;;;;;3.33;1.67;;;;;10.61;74.83;99807.47;5034451;28;45388;-54
2022/01/04 09:27:22;;;;;;;;;1.00;1.00;;;;;10.64;74.99;99804.50;5035225;28;45538;-52
2022/01/04 09:29:49;;;;;;;;;1.00;1.00;;;;;10.65;74.85;99808.81;5035611;28;45211;-54
2022/01/04 09:32:16;;;;;;;;;1.33;1.00;;;;;10.61;74.66;99801.34;5034219;28;46362;-53
2022/01/04 09:34:43;;;;;;;;;1.00;1.00;;;;;10.67;74.70;99798.84;5021555;28;45505;-53
2022/01/04 09:37:09;;;;;;;;;1.00;1.00;;;;;10.67;74.80;99804.16;5015209;28;45400;-53
2022/01/04 09:39:35;;;;;;;;;0.00;0.00;;;;;10.70;74.40;99814.47;5014926;28;45321;-53
2022/01/04 09:42:00;;;;;;;;;0.00;0.00;;;;;10.70;74.78;99809.16;5014858;28;46157;-52
2022/01/04 09:44:27;;;;;;;;;1.00;1.00;;;;;10.68;74.42;99797.84;5014158;28;45262;-53
2022/01/04 09:46:54;;;;;;;;;0.67;0.00;;;;;10.73;74.21;99797.31;5016093;28;45264;-54
2022/01/04 09:49:20;;;;;;;;;0.67;0.00;;;;;10.68;73.87;99773.06;5018690;28;45228;-53
2022/01/04 09:51:46;;;;;;;;;1.00;1.00;;;;;10.66;74.07;99799.84;5017939;28;46445;-53
2022/01/04 09:54:21;;;;;;;;;1.00;1.00;;;;;10.72;74.06;99819.59;5018360;28;45686;-53
2022/01/04 09:56:48;;;;;;;;;2.33;1.00;;;;;10.70;74.32;99817.13;5018364;28;45657;-52
2022/01/04 09:59:14;;;;;;;;;0.33;0.33;;;;;10.78;74.25;99828.72;5017606;28;45442;-50
2022/01/04 10:01:40;;;;;;;;;2.00;1.00;;;;;10.80;73.71;99830.22;5017017;28;46871;-51
2022/01/04 10:04:06;;;;;;;;;2.33;2.00;;;;;10.81;73.76;99839.88;5018270;28;45395;-52
2022/01/04 10:06:34;;;;;;;;;1.00;1.00;;;;;10.68;73.94;99816.44;5018310;28;45359;-51
2022/01/04 10:09:08;;;;;;;;;2.00;1.00;;;;;10.80;73.67;99840.88;5018897;28;45319;-54
2022/01/04 10:11:42;;;;;;;;;2.00;1.00;;;;;10.77;73.80;99849.19;5018088;28;46133;-51
2022/01/04 10:14:41;;;;;;;;;2.00;1.00;;;;;10.77;73.75;99856.34;5017933;28;45330;-52
2022/01/04 10:17:10;;;;;;;;;3.00;1.00;;;;;10.80;73.87;99858.66;5018279;28;45538;-54
2022/01/04 10:19:40;;;;;;;;;1.33;1.00;;;;;10.79;73.99;99862.31;5017842;28;45363;-53
2022/01/04 10:22:15;;;;;;;;;3.00;2.00;;;;;10.81;74.13;99868.31;5017981;28;45404;-54
2022/01/04 10:24:43;;;;;;;;;3.00;1.33;;;;;10.83;73.94;99869.81;5018035;28;45362;-54
2022/01/04 10:27:22;;;;;;;;;7.00;3.00;;;;;10.87;73.88;99862.28;5017865;28;45498;-54
2022/01/04 10:29:48;;;;;;;;;2.00;2.00;;;;;10.79;73.80;99841.03;5018034;28;45369;-52
2022/01/04 10:32:14;;;;;;;;;3.00;2.00;;;;;10.85;73.49;99843.84;5017847;28;46268;-52
2022/01/04 10:34:47;;;;;;;;;2.00;2.00;;;;;10.96;73.90;99846.16;5018122;28;45411;-55
2022/01/04 10:37:31;;;;;;;;;3.00;3.00;;;;;10.83;73.95;99827.22;5017944;28;45473;-53
2022/01/04 10:40:08;;;;;;;;;6.33;5.00;;;;;10.87;73.78;99839.19;5017941;28;45366;-53
2022/01/04 10:42:33;;;;;;;;;6.00;3.67;;;;;10.99;73.98;99847.63;5017532;28;46489;-54
2022/01/04 10:45:19;;;;;;;;;6.00;3.00;;;;;10.97;73.79;99837.16;5024515;28;45392;-54
2022/01/04 10:47:44;;;;;;;;;5.33;3.33;;;;;11.06;73.04;99831.81;5037627;28;45247;-54
2022/01/04 10:50:10;;;;;;;;;9.67;3.33;;;;;11.09;73.38;99826.16;5037372;28;45416;-52
2022/01/04 10:52:35;;;;;;;;;4.67;4.67;;;;;11.13;73.29;99840.78;5019195;28;45334;-53
2022/01/04 10:55:14;;;;;;;;;7.00;5.00;;;;;11.19;73.47;99837.41;5037398;28;45286;-55
2022/01/04 10:57:40;;;;;;;;;9.33;3.00;;;;;11.15;73.22;99820.94;5037698;28;45337;-51
2022/01/04 11:00:17;;;;;;;;;2.33;2.33;;;;;11.32;73.28;99837.69;5036907;28;45397;-53
2022/01/04 11:02:43;;;;;;;;;5.67;4.33;;;;;11.34;72.93;99842.84;5037061;28;47080;-51
2022/01/04 11:05:13;;;;;;;;;2.00;2.00;;;;;11.33;72.88;99834.00;5037467;28;45371;-51
2022/01/04 11:08:02;;;;;;;;;1.67;1.67;;;;;11.32;72.79;99843.00;5036594;28;45473;-52
2022/01/04 11:10:34;;;;;;;;;3.00;3.00;;;;;11.28;73.06;99833.69;5037385;28;45168;-54
2022/01/04 11:13:00;;;;;;;;;2.67;2.00;;;;;11.31;72.70;99837.88;5036852;28;46941;-51
2022/01/04 11:15:26;;;;;;;;;1.00;1.00;;;;;11.27;72.49;99825.91;5037102;28;45551;-52
2022/01/04 11:17:52;;;;;;;;;1.67;1.00;;;;;11.29;72.74;99834.53;5037061;28;45408;-55
2022/01/04 11:20:19;;;;;;;;;1.00;1.00;;;;;11.29;72.49;99835.34;5036884;28;45388;-51
2022/01/04 11:22:48;;;;;;;;;1.00;1.00;;;;;11.29;72.20;99840.69;5037154;28;46336;-54
2022/01/04 11:25:16;;;;;;;;;2.00;2.00;;;;;11.27;72.72;99831.22;5036805;28;45375;-53
2022/01/04 11:27:42;;;;;;;;;4.00;2.00;;;;;11.31;73.07;99843.19;5036772;28;45361;-51
2022/01/04 11:30:21;;;;;;;;;2.33;1.00;;;;;11.31;73.23;99844.00;5037473;28;45421;-52
2022/01/04 11:32:52;;;;;;;;;6.00;2.00;;;;;11.22;73.24;99829.91;5037031;28;47016;-54
2022/01/04 11:35:22;;;;;;;;;2.67;2.33;;;;;11.33;72.99;99844.66;5036587;28;45491;-51
2022/01/04 11:37:58;;;;;;;;;2.67;2.00;;;;;11.29;72.99;99840.69;5036747;28;45488;-53
2022/01/04 11:40:26;;;;;;;;;3.33;1.33;;;;;11.28;73.00;99836.38;5036993;28;45584;-52
2022/01/04 11:42:53;;;;;;;;;2.33;2.33;;;;;11.28;72.88;99839.03;5037152;28;46120;-55
2022/01/04 11:45:38;;;;;;;;;1.33;1.33;;;;;11.26;72.86;99830.41;5037391;28;45393;-53